createdAt,value
2018-07-07T00:00:40.748Z,99.90
2018-07-07T00:03:09.096Z,99.90
2018-07-07T00:05:37.474Z,99.90
2018-07-07T00:08:05.900Z,99.90
2018-07-07T00:10:34.264Z,99.90
2018-07-07T00:13:02.600Z,99.90
2018-07-07T00:15:30.952Z,99.90
2018-07-07T00:17:59.272Z,99.90
2018-07-07T00:20:27.601Z,99.90
2018-07-07T00:22:55.926Z,99.90
2018-07-07T00:25:24.256Z,99.90
2018-07-07T00:27:52.585Z,99.90
2018-07-07T00:30:20.949Z,99.90
2018-07-07T00:32:49.277Z,99.90
2018-07-07T00:35:17.620Z,99.70
2018-07-07T00:37:45.964Z,99.60
2018-07-07T00:40:14.341Z,99.60
2018-07-07T00:42:42.657Z,99.60
2018-07-07T00:45:11.032Z,99.40
2018-07-07T00:47:39.400Z,99.30
2018-07-07T00:50:08.296Z,99.30
2018-07-07T00:52:36.652Z,99.10
2018-07-07T00:55:05.077Z,99.10
2018-07-07T01:00:01.496Z,99.30
2018-07-07T01:02:29.823Z,99.50
2018-07-07T01:04:58.181Z,99.60
2018-07-07T01:07:26.519Z,99.60
2018-07-07T01:09:54.885Z,99.50
2018-07-07T01:12:23.291Z,99.50
2018-07-07T01:14:51.604Z,99.40
2018-07-07T01:17:19.944Z,99.30
2018-07-07T01:19:48.289Z,99.30
2018-07-07T01:22:16.617Z,99.20
2018-07-07T01:24:44.949Z,99.10
2018-07-07T01:27:13.306Z,99.20
2018-07-07T01:29:42.340Z,98.80
2018-07-07T01:32:10.940Z,98.60
2018-07-07T01:34:39.508Z,98.40
2018-07-07T01:37:07.926Z,98.10
2018-07-07T01:39:36.881Z,97.90
2018-07-07T01:42:05.609Z,97.50
2018-07-07T01:47:01.997Z,97.40
2018-07-07T01:49:30.365Z,97.20
2018-07-07T01:51:58.721Z,97.30
2018-07-07T01:54:27.036Z,97.20
2018-07-07T01:56:55.384Z,97.10
2018-07-07T01:59:23.676Z,97.10
2018-07-07T02:01:52.042Z,97.20
2018-07-07T02:04:20.455Z,97.00
2018-07-07T02:06:48.809Z,96.90
2018-07-07T02:09:17.132Z,96.90
2018-07-07T02:11:45.516Z,97.00
2018-07-07T02:14:14.005Z,97.00
2018-07-07T02:16:42.488Z,96.90
2018-07-07T02:19:10.809Z,97.00
2018-07-07T02:21:39.180Z,97.10
2018-07-07T02:24:07.537Z,97.00
2018-07-07T02:26:35.897Z,97.20
2018-07-07T02:29:04.223Z,97.10
2018-07-07T02:31:32.578Z,96.90
2018-07-07T02:34:00.890Z,96.70
2018-07-07T02:36:29.233Z,96.70
2018-07-07T02:38:57.568Z,96.70
2018-07-07T02:41:25.957Z,96.80
2018-07-07T02:43:54.241Z,96.70
2018-07-07T02:46:22.701Z,96.50
2018-07-07T02:48:51.036Z,96.40
2018-07-07T02:51:19.405Z,96.40
2018-07-07T02:53:47.743Z,96.50
2018-07-07T02:56:16.091Z,96.80
2018-07-07T02:58:44.469Z,96.90
2018-07-07T03:01:12.829Z,97.20
2018-07-07T03:03:41.132Z,97.30
2018-07-07T03:06:09.701Z,97.80
2018-07-07T03:08:38.052Z,97.70
2018-07-07T03:11:06.363Z,98.00
2018-07-07T03:13:34.737Z,98.00
2018-07-07T03:16:03.098Z,98.20
2018-07-07T03:18:31.451Z,98.40
2018-07-07T03:20:59.762Z,98.50
2018-07-07T03:23:28.177Z,98.50
2018-07-07T03:25:56.480Z,98.70
2018-07-07T03:28:24.833Z,98.80
2018-07-07T03:33:21.244Z,99.00
2018-07-07T03:35:49.552Z,99.10
2018-07-07T03:40:45.952Z,99.30
2018-07-07T03:43:14.284Z,99.30
2018-07-07T03:45:42.593Z,99.60
2018-07-07T03:48:10.937Z,99.70
2018-07-07T03:53:07.328Z,99.90
2018-07-07T03:55:35.628Z,99.90
2018-07-07T03:58:03.965Z,99.90
2018-07-07T04:00:32.290Z,99.90
2018-07-07T04:03:00.641Z,99.90
2018-07-07T04:05:28.966Z,99.90
2018-07-07T04:07:57.354Z,99.90
2018-07-07T04:10:25.648Z,99.90
2018-07-07T04:12:54.004Z,99.90
2018-07-07T04:15:22.304Z,99.90
2018-07-07T04:17:50.684Z,99.90
2018-07-07T04:20:19.006Z,99.90
2018-07-07T04:22:47.361Z,99.90
2018-07-07T04:25:15.657Z,99.90
2018-07-07T04:27:44.001Z,99.90
2018-07-07T04:30:12.365Z,99.90
2018-07-07T04:32:40.745Z,99.90
2018-07-07T04:35:09.059Z,99.90
2018-07-07T04:37:37.417Z,99.90
2018-07-07T04:40:05.757Z,99.90
2018-07-07T04:42:36.108Z,99.90
2018-07-07T04:45:04.458Z,99.90
2018-07-07T04:47:32.818Z,99.90
2018-07-07T04:50:01.112Z,99.90
2018-07-07T04:52:29.582Z,99.90
2018-07-07T04:54:57.877Z,99.90
2018-07-07T04:57:26.259Z,99.90
2018-07-07T04:59:54.580Z,99.90
2018-07-07T05:02:22.964Z,99.90
2018-07-07T05:09:47.449Z,99.80
2018-07-07T05:12:15.786Z,98.90
2018-07-07T05:14:44.132Z,98.60
2018-07-07T05:17:12.493Z,98.50
2018-07-07T05:19:40.799Z,98.20
2018-07-07T05:22:09.135Z,98.20
2018-07-07T05:24:37.504Z,98.10
2018-07-07T05:27:05.841Z,97.60
2018-07-07T05:32:02.273Z,97.50
2018-07-07T05:34:30.600Z,97.40
2018-07-07T05:36:58.896Z,97.70
2018-07-07T05:39:27.249Z,98.20
2018-07-07T05:41:55.557Z,98.40
2018-07-07T05:44:23.921Z,98.30
2018-07-07T05:46:52.232Z,97.90
2018-07-07T05:49:20.581Z,97.40
2018-07-07T05:51:48.904Z,97.10
2018-07-07T05:54:17.262Z,96.60
2018-07-07T05:56:45.570Z,96.40
2018-07-07T05:59:14.153Z,95.60
2018-07-07T06:01:42.449Z,95.30
2018-07-07T06:04:10.812Z,95.40
2018-07-07T06:06:39.151Z,94.90
2018-07-07T06:09:07.585Z,94.70
2018-07-07T06:11:36.216Z,94.70
2018-07-07T06:14:04.837Z,94.00
2018-07-07T06:16:33.231Z,93.60
2018-07-07T06:19:01.597Z,94.10
2018-07-07T06:21:29.920Z,94.40
2018-07-07T06:24:04.601Z,94.50
2018-07-07T06:26:32.977Z,94.50
2018-07-07T06:29:01.314Z,94.30
2018-07-07T06:31:30.232Z,94.40
2018-07-07T06:33:58.846Z,94.20
2018-07-07T06:36:27.171Z,93.70
2018-07-07T06:38:55.522Z,93.00
2018-07-07T06:41:23.837Z,92.00
2018-07-07T06:43:52.205Z,91.30
2018-07-07T06:46:20.560Z,91.10
2018-07-07T06:48:48.916Z,91.20
2018-07-07T06:51:17.235Z,91.20
2018-07-07T06:53:45.648Z,90.30
2018-07-07T06:56:13.965Z,90.30
2018-07-07T07:01:10.348Z,89.50
2018-07-07T07:03:38.753Z,90.00
2018-07-07T07:06:07.125Z,88.10
2018-07-07T07:08:35.528Z,87.50
2018-07-07T07:11:03.884Z,88.40
2018-07-07T07:13:32.218Z,88.40
2018-07-07T07:18:28.626Z,87.90
2018-07-07T07:20:57.001Z,86.70
2018-07-07T07:23:25.321Z,86.50
2018-07-07T07:25:54.179Z,85.40
2018-07-07T07:28:22.472Z,82.40
2018-07-07T07:30:50.836Z,79.20
2018-07-07T07:33:19.183Z,78.30
2018-07-07T07:35:47.528Z,76.50
2018-07-07T07:38:15.949Z,76.60
2018-07-07T07:40:44.329Z,76.30
2018-07-07T07:43:12.678Z,71.60
2018-07-07T07:45:41.045Z,65.50
2018-07-07T07:48:09.355Z,67.50
2018-07-07T07:50:37.712Z,68.90
2018-07-07T07:53:06.057Z,66.00
2018-07-07T07:55:34.416Z,64.70
2018-07-07T07:58:02.739Z,65.70
2018-07-07T08:00:31.089Z,66.40
2018-07-07T08:02:59.434Z,64.60
2018-07-07T08:05:27.776Z,60.30
2018-07-07T08:07:56.093Z,62.00
2018-07-07T08:10:24.485Z,64.70
2018-07-07T08:12:52.785Z,65.70
2018-07-07T08:15:21.177Z,67.60
2018-07-07T08:17:49.485Z,67.20
2018-07-07T08:20:17.821Z,63.60
2018-07-07T08:22:46.174Z,61.10
2018-07-07T08:25:14.512Z,59.30
2018-07-07T08:27:42.820Z,59.30
2018-07-07T08:30:11.228Z,61.10
2018-07-07T08:32:39.564Z,62.30
2018-07-07T08:35:07.888Z,62.20
2018-07-07T08:37:36.245Z,62.40
2018-07-07T08:40:04.590Z,58.30
2018-07-07T08:42:32.937Z,60.10
2018-07-07T08:45:01.234Z,62.90
2018-07-07T08:47:29.581Z,62.40
2018-07-07T08:49:57.897Z,61.70
2018-07-07T08:54:54.270Z,58.00
2018-07-07T08:57:22.610Z,58.70
2018-07-07T08:59:50.923Z,59.10
2018-07-07T09:02:19.305Z,59.50
2018-07-07T09:04:47.634Z,59.30
2018-07-07T09:07:15.989Z,59.10
2018-07-07T09:09:44.344Z,58.70
2018-07-07T09:12:12.710Z,59.30
2018-07-07T09:14:41.023Z,59.50
2018-07-07T09:17:09.380Z,58.30
2018-07-07T09:19:38.017Z,58.10
2018-07-07T09:22:06.549Z,58.70
2018-07-07T09:24:34.880Z,59.80
2018-07-07T09:27:03.242Z,58.80
2018-07-07T09:29:31.552Z,59.40
2018-07-07T09:31:59.901Z,59.30
2018-07-07T09:34:28.214Z,58.60
2018-07-07T09:36:56.602Z,58.10
2018-07-07T09:39:24.918Z,59.40
2018-07-07T09:41:53.283Z,58.00
2018-07-07T09:44:21.617Z,58.90
2018-07-07T09:46:49.977Z,58.10
2018-07-07T09:49:18.309Z,58.40
2018-07-07T09:51:46.662Z,58.50
2018-07-07T09:54:14.977Z,58.40
2018-07-07T09:56:43.333Z,57.20
2018-07-07T09:59:11.680Z,56.70
2018-07-07T10:01:39.981Z,58.50
2018-07-07T10:04:08.340Z,58.10
2018-07-07T10:06:36.644Z,57.90
2018-07-07T10:09:05.038Z,58.60
2018-07-07T10:11:33.394Z,59.20
2018-07-07T10:14:01.756Z,59.10
2018-07-07T10:16:30.081Z,58.90
2018-07-07T10:18:58.425Z,59.50
2018-07-07T10:21:26.743Z,61.10
2018-07-07T10:23:55.088Z,59.00
2018-07-07T10:26:23.495Z,58.70
2018-07-07T10:28:51.780Z,55.80
2018-07-07T10:31:20.109Z,56.10
2018-07-07T10:33:48.449Z,56.70
2018-07-07T10:36:16.760Z,57.20
2018-07-07T10:38:45.123Z,57.90
2018-07-07T10:41:13.424Z,58.10
2018-07-07T10:43:41.809Z,57.40
2018-07-07T10:46:10.180Z,56.20
2018-07-07T10:48:38.504Z,56.60
2018-07-07T10:53:34.916Z,56.20
2018-07-07T10:56:03.270Z,56.70
2018-07-07T10:58:31.641Z,55.30
2018-07-07T11:00:59.996Z,54.80
2018-07-07T11:03:28.352Z,56.00
2018-07-07T11:05:56.652Z,55.60
2018-07-07T11:10:53.064Z,57.70
2018-07-07T11:13:21.428Z,56.50
2018-07-07T11:15:49.739Z,57.00
2018-07-07T11:18:18.100Z,58.20
2018-07-07T11:20:46.424Z,57.00
2018-07-07T11:23:14.812Z,54.60
2018-07-07T11:25:43.117Z,53.30
2018-07-07T11:28:11.501Z,53.70
2018-07-07T11:30:39.813Z,54.30
2018-07-07T11:33:08.112Z,54.60
2018-07-07T11:35:36.460Z,54.50
2018-07-07T11:38:04.809Z,55.50
2018-07-07T11:40:33.181Z,55.40
2018-07-07T11:43:02.290Z,56.30
2018-07-07T11:45:30.697Z,56.20
2018-07-07T11:47:59.187Z,55.80
2018-07-07T11:50:27.586Z,55.80
2018-07-07T11:52:55.864Z,57.00
2018-07-07T11:55:24.226Z,54.20
2018-07-07T11:57:52.573Z,54.40
2018-07-07T12:00:20.913Z,54.50
2018-07-07T12:05:17.481Z,52.60
2018-07-07T12:07:45.809Z,54.20
2018-07-07T12:10:14.217Z,53.40
2018-07-07T12:12:42.588Z,54.40
2018-07-07T12:15:10.951Z,54.70
2018-07-07T12:17:39.298Z,56.40
2018-07-07T12:20:07.691Z,55.00
2018-07-07T12:22:36.057Z,55.50
2018-07-07T12:25:04.462Z,56.10
2018-07-07T12:27:32.781Z,55.50
2018-07-07T12:30:01.141Z,56.10
2018-07-07T12:32:34.104Z,56.30
2018-07-07T12:35:02.488Z,55.50
2018-07-07T12:37:30.805Z,55.50
2018-07-07T12:39:59.152Z,55.10
2018-07-07T12:42:27.468Z,53.80
2018-07-07T12:44:55.821Z,53.10
2018-07-07T12:47:24.145Z,53.80
2018-07-07T12:49:52.503Z,53.40
2018-07-07T12:52:26.489Z,52.70
2018-07-07T12:54:54.849Z,54.60
2018-07-07T12:57:23.168Z,53.90
2018-07-07T12:59:51.526Z,53.90
2018-07-07T13:02:19.852Z,53.20
2018-07-07T13:04:48.208Z,54.80
2018-07-07T13:07:16.536Z,53.90
2018-07-07T13:09:44.948Z,56.20
2018-07-07T13:12:13.301Z,53.60
2018-07-07T13:14:41.681Z,54.10
2018-07-07T13:17:10.033Z,53.90
2018-07-07T13:19:38.328Z,51.70
2018-07-07T13:22:06.690Z,52.50
2018-07-07T13:24:35.101Z,53.50
2018-07-07T13:27:03.477Z,54.60
2018-07-07T13:29:31.784Z,53.60
2018-07-07T13:32:00.153Z,54.20
2018-07-07T13:34:28.470Z,53.10
2018-07-07T13:36:56.812Z,52.30
2018-07-07T13:39:25.642Z,53.30
2018-07-07T13:41:54.144Z,53.90
2018-07-07T13:44:22.519Z,51.50
2018-07-07T13:49:18.889Z,53.30
2018-07-07T13:51:47.324Z,50.60
2018-07-07T13:56:43.721Z,51.50
2018-07-07T13:59:12.029Z,52.00
2018-07-07T14:01:40.484Z,52.20
2018-07-07T14:04:08.837Z,52.10
2018-07-07T14:06:37.177Z,51.50
2018-07-07T14:09:06.601Z,51.10
2018-07-07T14:11:34.987Z,52.90
2018-07-07T14:14:03.367Z,51.00
2018-07-07T14:16:31.708Z,51.80
2018-07-07T14:19:00.023Z,49.00
2018-07-07T14:23:56.449Z,50.20
2018-07-07T14:26:25.452Z,48.90
2018-07-07T14:28:53.761Z,50.60
2018-07-07T14:31:22.109Z,49.60
2018-07-07T14:33:50.408Z,49.40
2018-07-07T14:36:18.749Z,48.90
2018-07-07T14:38:47.076Z,49.50
2018-07-07T14:41:17.082Z,49.20
2018-07-07T14:43:52.740Z,49.50
2018-07-07T14:46:21.504Z,49.20
2018-07-07T14:48:49.885Z,48.80
2018-07-07T14:51:18.233Z,49.00
2018-07-07T14:53:46.669Z,48.10
2018-07-07T14:56:15.605Z,48.10
2018-07-07T14:58:43.989Z,49.20
2018-07-07T15:01:12.818Z,49.90
2018-07-07T15:03:41.494Z,46.50
2018-07-07T15:06:09.949Z,46.90
2018-07-07T15:08:38.300Z,45.90
2018-07-07T15:11:07.157Z,46.60
2018-07-07T15:13:35.516Z,46.00
2018-07-07T15:16:03.970Z,45.50
2018-07-07T15:18:33.296Z,45.10
2018-07-07T15:21:01.661Z,45.70
2018-07-07T15:23:30.277Z,45.00
2018-07-07T15:25:58.594Z,45.70
2018-07-07T15:28:26.950Z,46.20
2018-07-07T15:30:55.280Z,47.60
2018-07-07T15:33:23.641Z,47.20
2018-07-07T15:35:51.953Z,48.30
2018-07-07T15:38:20.301Z,46.60
2018-07-07T15:40:48.634Z,46.50
2018-07-07T15:43:16.996Z,46.30
2018-07-07T15:45:45.310Z,45.90
2018-07-07T15:48:13.868Z,46.50
2018-07-07T15:50:42.272Z,48.00
2018-07-07T15:53:10.628Z,46.90
2018-07-07T15:55:38.944Z,46.00
2018-07-07T15:58:07.301Z,47.50
2018-07-07T16:00:35.633Z,47.80
2018-07-07T16:03:04.057Z,47.70
2018-07-07T16:08:00.445Z,47.00
2018-07-07T16:10:28.785Z,46.70
2018-07-07T16:12:57.161Z,46.70
2018-07-07T16:15:25.527Z,46.80
2018-07-07T16:17:53.853Z,45.90
2018-07-07T16:20:22.165Z,47.50
2018-07-07T16:22:50.516Z,47.60
2018-07-07T16:25:18.837Z,48.80
2018-07-07T16:27:47.224Z,49.10
2018-07-07T16:30:15.529Z,49.50
2018-07-07T16:32:43.862Z,49.50
2018-07-07T16:35:12.312Z,50.20
2018-07-07T16:37:40.631Z,50.80
2018-07-07T16:40:09.044Z,51.30
2018-07-07T16:42:38.090Z,50.50
2018-07-07T16:45:06.497Z,50.40
2018-07-07T16:47:34.829Z,50.30
2018-07-07T16:50:03.218Z,51.00
2018-07-07T16:52:31.565Z,51.50
2018-07-07T16:55:00.053Z,51.50
2018-07-07T16:57:28.360Z,52.20
2018-07-07T16:59:56.725Z,52.00
2018-07-07T17:02:25.047Z,52.10
2018-07-07T17:04:53.408Z,51.70
2018-07-07T17:07:21.749Z,51.30
2018-07-07T17:09:50.136Z,51.00
2018-07-07T17:12:18.489Z,51.00
2018-07-07T17:14:46.892Z,51.80
2018-07-07T17:17:15.238Z,52.10
2018-07-07T17:19:43.889Z,52.30
2018-07-07T17:22:12.314Z,52.10
2018-07-07T17:24:40.692Z,52.90
2018-07-07T17:27:09.044Z,53.40
2018-07-07T17:29:37.901Z,52.00
2018-07-07T17:32:06.270Z,51.40
2018-07-07T17:34:34.649Z,51.50
2018-07-07T17:37:03.085Z,51.90
2018-07-07T17:39:31.380Z,52.40
2018-07-07T17:41:59.721Z,52.40
2018-07-07T17:44:28.112Z,53.00
2018-07-07T17:46:56.449Z,52.80
2018-07-07T17:49:24.960Z,53.30
2018-07-07T17:51:53.221Z,53.40
2018-07-07T17:54:21.617Z,54.00
2018-07-07T17:56:49.976Z,54.20
2018-07-07T17:59:23.912Z,54.80
2018-07-07T18:01:52.493Z,55.20
2018-07-07T18:04:21.121Z,55.60
2018-07-07T18:09:17.508Z,56.40
2018-07-07T18:11:45.890Z,56.80
2018-07-07T18:14:14.246Z,56.50
2018-07-07T18:16:42.600Z,56.60
2018-07-07T18:19:11.005Z,56.60
2018-07-07T18:21:39.305Z,56.30
2018-07-07T18:24:07.607Z,56.70
2018-07-07T18:26:36.053Z,56.80
2018-07-07T18:29:04.597Z,57.40
2018-07-07T18:31:32.940Z,57.00
2018-07-07T18:34:01.282Z,57.30
2018-07-07T18:38:57.712Z,58.10
2018-07-07T18:41:26.064Z,58.40
2018-07-07T18:43:54.401Z,58.50
2018-07-07T18:48:50.841Z,59.10
2018-07-07T18:51:19.226Z,59.50
2018-07-07T18:53:47.546Z,59.90
2018-07-07T18:56:15.960Z,60.30
2018-07-07T18:58:44.282Z,61.00
2018-07-07T19:01:12.660Z,61.50
2018-07-07T19:03:40.977Z,61.80
2018-07-07T19:06:09.341Z,62.10
2018-07-07T19:08:37.677Z,63.00
2018-07-07T19:11:06.249Z,63.30
2018-07-07T19:13:34.576Z,63.70
2018-07-07T19:16:02.927Z,64.30
2018-07-07T19:18:31.260Z,64.40
2018-07-07T19:21:04.873Z,64.60
2018-07-07T19:23:38.583Z,64.50
2018-07-07T19:26:12.317Z,64.50
2018-07-07T19:28:40.684Z,65.40
2018-07-07T19:31:09.068Z,64.80
2018-07-07T19:33:42.671Z,65.00
2018-07-07T19:36:16.473Z,65.10
2018-07-07T19:41:13.730Z,65.40
2018-07-07T19:43:42.051Z,66.20
2018-07-07T19:46:10.485Z,66.40
2018-07-07T19:48:38.769Z,66.40
2018-07-07T19:51:07.137Z,66.80
2018-07-07T19:53:35.507Z,65.90
2018-07-07T19:56:03.849Z,66.80
2018-07-07T19:58:32.179Z,67.00
2018-07-07T20:01:00.574Z,67.50
2018-07-07T20:03:28.886Z,68.00
2018-07-07T20:05:57.241Z,68.30
2018-07-07T20:08:25.558Z,68.70
2018-07-07T20:10:53.950Z,68.70
2018-07-07T20:13:22.311Z,69.10
2018-07-07T20:16:18.638Z,69.40
2018-07-07T20:19:24.462Z,69.60
2018-07-07T20:22:01.064Z,70.20
2018-07-07T20:24:31.778Z,70.60
2018-07-07T20:27:05.456Z,70.90
2018-07-07T20:29:39.166Z,71.10
2018-07-07T20:32:12.864Z,71.40
2018-07-07T20:34:41.241Z,71.50
2018-07-07T20:37:09.665Z,72.20
2018-07-07T20:39:37.989Z,72.50
2018-07-07T20:42:06.797Z,72.70
2018-07-07T20:44:35.851Z,72.70
2018-07-07T20:47:05.730Z,73.10
2018-07-07T20:49:34.106Z,73.10
2018-07-07T20:52:02.468Z,73.50
2018-07-07T20:54:30.781Z,73.80
2018-07-07T20:56:59.120Z,74.40
2018-07-07T20:59:27.429Z,74.80
2018-07-07T21:01:55.792Z,75.20
2018-07-07T21:04:24.101Z,75.10
2018-07-07T21:06:52.444Z,75.50
2018-07-07T21:09:20.757Z,75.30
2018-07-07T21:11:49.118Z,75.80
2018-07-07T21:14:17.418Z,75.50
2018-07-07T21:16:45.765Z,75.80
2018-07-07T21:19:14.072Z,76.10
2018-07-07T21:21:42.532Z,75.90
2018-07-07T21:26:38.926Z,76.30
2018-07-07T21:29:07.238Z,76.20
2018-07-07T21:31:35.589Z,76.90
2018-07-07T21:34:03.902Z,77.10
2018-07-07T21:36:32.253Z,77.40
2018-07-07T21:39:00.620Z,77.60
2018-07-07T21:41:28.928Z,77.90
2018-07-07T21:43:57.269Z,78.00
2018-07-07T21:46:25.587Z,77.80
2018-07-07T21:48:53.968Z,77.80
2018-07-07T21:51:22.297Z,77.90
2018-07-07T21:53:50.802Z,78.40
2018-07-07T21:56:18.985Z,79.00
2018-07-07T21:58:47.388Z,79.30
2018-07-07T22:01:28.041Z,79.50
2018-07-07T22:04:01.793Z,79.30
2018-07-07T22:06:35.471Z,79.00
2018-07-07T22:09:03.926Z,79.10
2018-07-07T22:11:32.287Z,79.30
2018-07-07T22:14:00.616Z,79.50
2018-07-07T22:16:28.930Z,79.60
2018-07-07T22:18:57.282Z,80.20
2018-07-07T22:21:38.832Z,80.40
2018-07-07T22:24:07.205Z,80.70
2018-07-07T22:26:35.505Z,80.80
2018-07-07T22:29:03.900Z,81.00
2018-07-07T22:31:32.221Z,80.80
2018-07-07T22:34:00.561Z,80.80
2018-07-07T22:36:33.887Z,80.80
2018-07-07T22:39:02.496Z,80.80
2018-07-07T22:41:42.061Z,80.60
2018-07-07T22:44:10.402Z,80.60
2018-07-07T22:46:38.719Z,80.40
2018-07-07T22:49:07.112Z,80.30
2018-07-07T22:51:35.453Z,81.10
2018-07-07T22:54:03.795Z,80.10
2018-07-07T22:56:32.117Z,79.80
2018-07-07T22:59:00.472Z,78.90
2018-07-07T23:01:28.805Z,78.50
2018-07-07T23:03:57.159Z,78.10
2018-07-07T23:06:25.488Z,77.60
2018-07-07T23:08:53.849Z,77.50
2018-07-07T23:11:22.513Z,77.20
2018-07-07T23:13:50.881Z,77.00
2018-07-07T23:16:19.202Z,76.90
2018-07-07T23:18:47.569Z,76.60
2018-07-07T23:21:15.880Z,76.40
2018-07-07T23:28:40.330Z,76.70
2018-07-07T23:31:08.646Z,77.10
2018-07-07T23:33:36.992Z,77.20
2018-07-07T23:36:05.337Z,77.20
2018-07-07T23:38:33.684Z,77.30
2018-07-07T23:41:02.053Z,77.30
2018-07-07T23:43:30.406Z,76.70
2018-07-07T23:45:58.733Z,76.60
2018-07-07T23:48:27.089Z,76.60
2018-07-07T23:50:55.429Z,76.80
2018-07-07T23:53:23.772Z,76.60
2018-07-07T23:55:52.133Z,76.30
2018-07-07T23:58:20.449Z,76.40
